createdAt,value
2018-02-27T00:00:21.318Z,0
2018-02-27T00:01:21.369Z,0
2018-02-27T00:02:21.069Z,0
2018-02-27T00:03:21.345Z,0
2018-02-27T00:04:21.356Z,0
2018-02-27T00:05:21.072Z,0
2018-02-27T00:06:21.133Z,0
2018-02-27T00:07:21.089Z,0
2018-02-27T00:08:21.383Z,0
2018-02-27T00:09:21.426Z,0
2018-02-27T00:10:21.105Z,0
2018-02-27T00:11:21.220Z,0
2018-02-27T00:12:21.122Z,0
2018-02-27T00:13:20.852Z,0
2018-02-27T00:14:21.517Z,0
2018-02-27T00:15:20.864Z,0
2018-02-27T00:16:21.438Z,0
2018-02-27T00:17:20.881Z,0
2018-02-27T00:18:21.168Z,0
2018-02-27T00:19:21.173Z,0
2018-02-27T00:20:21.178Z,0
2018-02-27T00:21:21.268Z,0
2018-02-27T00:22:20.909Z,0
2018-02-27T00:23:20.923Z,0
2018-02-27T00:24:21.251Z,0
2018-02-27T00:25:21.500Z,0
2018-02-27T00:26:21.558Z,0
2018-02-27T00:27:21.528Z,0
2018-02-27T00:28:21.244Z,0
2018-02-27T00:29:21.251Z,0
2018-02-27T00:30:21.258Z,0
2018-02-27T00:31:21.600Z,0
2018-02-27T00:32:20.985Z,0
2018-02-27T00:33:21.560Z,0
2018-02-27T00:34:21.009Z,0
2018-02-27T00:35:21.577Z,0
2018-02-27T00:36:21.348Z,0
2018-02-27T00:37:21.022Z,0
2018-02-27T00:38:21.312Z,0
2018-02-27T00:39:21.322Z,0
2018-02-27T00:40:21.050Z,0
2018-02-27T00:41:21.061Z,0
2018-02-27T00:42:21.629Z,0
2018-02-27T00:43:21.649Z,0
2018-02-27T00:44:21.644Z,0
2018-02-27T00:45:21.367Z,0
2018-02-27T00:46:20.821Z,0
2018-02-27T00:47:21.381Z,0
2018-02-27T00:48:21.405Z,0
2018-02-27T00:49:21.679Z,0
2018-02-27T00:50:20.836Z,0
2018-02-27T00:51:21.125Z,0
2018-02-27T00:52:21.708Z,0
2018-02-27T00:53:21.433Z,0
2018-02-27T00:54:21.719Z,0
2018-02-27T00:55:21.440Z,0
2018-02-27T00:56:21.453Z,0
2018-02-27T00:57:21.171Z,0
2018-02-27T00:58:21.459Z,0
2018-02-27T00:59:21.766Z,0
2018-02-27T01:00:21.473Z,0
2018-02-27T01:01:21.532Z,0
2018-02-27T01:02:21.217Z,0
2018-02-27T01:03:21.506Z,0
2018-02-27T01:04:21.508Z,0
2018-02-27T01:05:21.516Z,0
2018-02-27T01:06:21.856Z,0
2018-02-27T01:07:21.529Z,0
2018-02-27T01:08:21.255Z,0
2018-02-27T01:09:21.590Z,0
2018-02-27T01:10:21.547Z,0
2018-02-27T01:11:21.560Z,0
2018-02-27T01:12:21.567Z,0
2018-02-27T01:13:21.607Z,0
2018-02-27T01:14:21.586Z,0
2018-02-27T01:15:21.874Z,0
2018-02-27T01:16:21.648Z,0
2018-02-27T01:17:21.315Z,0
2018-02-27T01:18:21.324Z,0
2018-02-27T01:19:21.338Z,0
2018-02-27T01:20:21.627Z,0
2018-02-27T01:21:21.965Z,0
2018-02-27T01:22:21.648Z,0
2018-02-27T01:23:21.929Z,0
2018-02-27T01:24:21.664Z,0
2018-02-27T01:25:21.667Z,0
2018-02-27T01:26:21.714Z,0
2018-02-27T01:27:21.675Z,0
2018-02-27T01:28:21.965Z,0
2018-02-27T01:29:21.972Z,0
2018-02-27T01:30:21.708Z,0
2018-02-27T01:31:21.752Z,0
2018-02-27T01:32:21.710Z,0
2018-02-27T01:33:21.720Z,0
2018-02-27T01:34:21.732Z,0
2018-02-27T01:35:22.016Z,0
2018-02-27T01:36:21.514Z,0
2018-02-27T01:37:22.024Z,0
2018-02-27T01:38:21.480Z,0
2018-02-27T01:39:21.762Z,0
2018-02-27T01:40:22.051Z,0
2018-02-27T01:41:21.826Z,0
2018-02-27T01:42:21.779Z,0
2018-02-27T01:43:22.077Z,0
2018-02-27T01:44:21.235Z,0
2018-02-27T01:45:22.087Z,0
2018-02-27T01:46:21.578Z,0
2018-02-27T01:47:22.100Z,0
2018-02-27T01:48:21.836Z,0
2018-02-27T01:49:21.752Z,0
2018-02-27T01:50:21.836Z,0
2018-02-27T01:51:22.133Z,0
2018-02-27T01:52:21.290Z,0
2018-02-27T01:53:22.143Z,0
2018-02-27T01:54:21.584Z,0
2018-02-27T01:55:21.309Z,0
2018-02-27T01:56:21.883Z,0
2018-02-27T01:57:21.884Z,0
2018-02-27T01:58:22.180Z,0
2018-02-27T01:59:21.622Z,0
2018-02-27T02:00:22.196Z,0
2018-02-27T02:01:21.635Z,0
2018-02-27T02:02:22.217Z,0
2018-02-27T02:03:21.647Z,0
2018-02-27T02:04:22.227Z,0
2018-02-27T02:05:21.948Z,0
2018-02-27T02:06:22.011Z,0
2018-02-27T02:07:22.024Z,0
2018-02-27T02:08:22.100Z,0
2018-02-27T02:09:21.973Z,0
2018-02-27T02:10:21.704Z,0
2018-02-27T02:11:21.989Z,0
2018-02-27T02:12:21.718Z,0
2018-02-27T02:13:22.020Z,0
2018-02-27T02:14:22.017Z,0
2018-02-27T02:15:22.019Z,0
2018-02-27T02:16:22.362Z,0
2018-02-27T02:17:22.028Z,0
2018-02-27T02:18:22.553Z,0
2018-02-27T02:19:22.046Z,0
2018-02-27T02:20:22.331Z,0
2018-02-27T02:21:22.106Z,0
2018-02-27T02:22:21.783Z,0
2018-02-27T02:23:21.794Z,0
2018-02-27T02:24:22.081Z,0
2018-02-27T02:25:22.373Z,0
2018-02-27T02:26:22.146Z,0
2018-02-27T02:27:22.383Z,0
2018-02-27T02:28:22.395Z,0
2018-02-27T02:29:22.402Z,0
2018-02-27T02:30:21.845Z,0
2018-02-27T02:31:21.859Z,0
2018-02-27T02:32:22.140Z,0
2018-02-27T02:33:21.860Z,0
2018-02-27T02:34:22.167Z,0
2018-02-27T02:35:21.874Z,0
2018-02-27T02:36:22.180Z,0
2018-02-27T02:37:21.888Z,0
2018-02-27T02:38:21.903Z,0
2018-02-27T02:39:22.476Z,0
2018-02-27T02:40:22.194Z,0
2018-02-27T02:41:22.540Z,0
2018-02-27T02:42:22.210Z,0
2018-02-27T02:43:22.239Z,0
2018-02-27T02:44:22.229Z,0
2018-02-27T02:45:22.521Z,0
2018-02-27T02:46:22.514Z,0
2018-02-27T02:47:21.965Z,0
2018-02-27T02:48:22.257Z,0
2018-02-27T02:49:22.257Z,0
2018-02-27T02:50:22.547Z,0
2018-02-27T02:51:21.988Z,0
2018-02-27T02:52:22.303Z,0
2018-02-27T02:53:21.720Z,0
2018-02-27T02:54:22.014Z,0
2018-02-27T02:55:22.586Z,0
2018-02-27T02:56:22.306Z,0
2018-02-27T02:57:22.316Z,0
2018-02-27T02:58:22.604Z,0
2018-02-27T02:59:22.614Z,0
2018-02-27T03:00:22.333Z,0
2018-02-27T03:01:22.112Z,0
2018-02-27T03:02:22.348Z,0
2018-02-27T03:03:22.639Z,0
2018-02-27T03:04:22.368Z,0
2018-02-27T03:05:22.368Z,0
2018-02-27T03:06:22.374Z,0
2018-02-27T03:07:22.664Z,0
2018-02-27T03:08:22.393Z,0
2018-02-27T03:09:22.391Z,0
2018-02-27T03:10:22.404Z,0
2018-02-27T03:11:22.417Z,0
2018-02-27T03:12:22.701Z,0
2018-02-27T03:13:22.423Z,0
2018-02-27T03:14:22.714Z,0
2018-02-27T03:15:22.434Z,0
2018-02-27T03:16:22.781Z,0
2018-02-27T03:17:22.734Z,0
2018-02-27T03:18:22.460Z,0
2018-02-27T03:19:22.750Z,0
2018-02-27T03:20:22.480Z,0
2018-02-27T03:21:22.482Z,0
2018-02-27T03:22:22.488Z,0
2018-02-27T03:23:22.498Z,0
2018-02-27T03:24:22.781Z,0
2018-02-27T03:25:22.225Z,0
2018-02-27T03:26:22.514Z,0
2018-02-27T03:27:22.804Z,0
2018-02-27T03:28:22.527Z,0
2018-02-27T03:29:22.534Z,0
2018-02-27T03:30:22.552Z,0
2018-02-27T03:31:22.558Z,0
2018-02-27T03:32:22.550Z,0
2018-02-27T03:33:22.561Z,0
2018-02-27T03:34:22.588Z,0
2018-02-27T03:35:22.868Z,0
2018-02-27T03:36:22.580Z,0
2018-02-27T03:37:22.923Z,0
2018-02-27T03:38:22.593Z,0
2018-02-27T03:39:22.886Z,0
2018-02-27T03:40:22.609Z,0
2018-02-27T03:41:22.627Z,0
2018-02-27T03:42:22.626Z,0
2018-02-27T03:43:22.346Z,0
2018-02-27T03:44:22.919Z,0
2018-02-27T03:45:22.930Z,0
2018-02-27T03:46:22.653Z,0
2018-02-27T03:47:22.419Z,0
2018-02-27T03:48:22.956Z,0
2018-02-27T03:49:22.951Z,0
2018-02-27T03:50:22.960Z,0
2018-02-27T03:51:22.687Z,0
2018-02-27T03:52:22.749Z,0
2018-02-27T03:53:22.694Z,0
2018-02-27T03:54:22.707Z,0
2018-02-27T03:55:22.708Z,0
2018-02-27T03:56:22.719Z,0
2018-02-27T03:57:22.722Z,0
2018-02-27T03:58:22.728Z,0
2018-02-27T03:59:22.174Z,0
2018-02-27T04:00:23.031Z,0
2018-02-27T04:01:22.755Z,0
2018-02-27T04:02:23.038Z,0
2018-02-27T04:03:22.761Z,0
2018-02-27T04:04:22.773Z,0
2018-02-27T04:05:22.497Z,0
2018-02-27T04:06:22.499Z,0
2018-02-27T04:07:22.558Z,0
2018-02-27T04:08:22.925Z,0
2018-02-27T04:09:22.805Z,0
2018-02-27T04:10:23.093Z,0
2018-02-27T04:11:23.108Z,0
2018-02-27T04:12:22.879Z,0
2018-02-27T04:13:23.116Z,0
2018-02-27T04:14:23.133Z,0
2018-02-27T04:15:23.127Z,0
2018-02-27T04:16:22.859Z,0
2018-02-27T04:17:23.194Z,0
2018-02-27T04:18:22.863Z,0
2018-02-27T04:19:22.872Z,0
2018-02-27T04:20:22.882Z,0
2018-02-27T04:21:23.166Z,0
2018-02-27T04:22:22.955Z,0
2018-02-27T04:23:22.925Z,0
2018-02-27T04:24:22.339Z,0
2018-02-27T04:25:22.915Z,0
2018-02-27T04:26:22.922Z,0
2018-02-27T04:27:22.979Z,0
2018-02-27T04:28:23.218Z,0
2018-02-27T04:29:22.664Z,0
2018-02-27T04:30:22.944Z,0
2018-02-27T04:31:23.236Z,0
2018-02-27T04:32:23.017Z,0
2018-02-27T04:33:22.685Z,0
2018-02-27T04:34:22.976Z,0
2018-02-27T04:35:22.976Z,0
2018-02-27T04:36:23.268Z,0
2018-02-27T04:37:23.045Z,0
2018-02-27T04:38:23.292Z,0
2018-02-27T04:39:23.008Z,0
2018-02-27T04:40:23.295Z,0
2018-02-27T04:41:23.027Z,0
2018-02-27T04:42:22.795Z,0
2018-02-27T04:43:23.044Z,0
2018-02-27T04:44:23.052Z,0
2018-02-27T04:45:22.766Z,0
2018-02-27T04:46:23.060Z,0
2018-02-27T04:47:22.785Z,0
2018-02-27T04:48:23.351Z,0
2018-02-27T04:49:23.362Z,0
2018-02-27T04:50:23.364Z,0
2018-02-27T04:51:23.097Z,0
2018-02-27T04:52:23.146Z,0
2018-02-27T04:53:22.823Z,0
2018-02-27T04:54:23.103Z,0
2018-02-27T04:55:23.393Z,0
2018-02-27T04:56:23.127Z,0
2018-02-27T04:57:23.175Z,0
2018-02-27T04:58:23.413Z,0
2018-02-27T04:59:23.138Z,0
2018-02-27T05:00:23.141Z,0
2018-02-27T05:01:23.149Z,0
2018-02-27T05:02:23.496Z,0
2018-02-27T05:03:23.450Z,0
2018-02-27T05:04:23.208Z,0
2018-02-27T05:05:23.186Z,0
2018-02-27T05:06:23.488Z,0
2018-02-27T05:07:23.480Z,0
2018-02-27T05:08:23.485Z,0
2018-02-27T05:09:22.922Z,0
2018-02-27T05:10:23.218Z,0
2018-02-27T05:11:23.227Z,0
2018-02-27T05:12:22.963Z,0
2018-02-27T05:13:23.002Z,0
2018-02-27T05:14:23.241Z,0
2018-02-27T05:15:23.530Z,0
2018-02-27T05:16:23.654Z,0
2018-02-27T05:17:23.539Z,0
2018-02-27T05:18:23.546Z,0
2018-02-27T05:19:23.279Z,0
2018-02-27T05:20:23.002Z,0
2018-02-27T05:21:23.577Z,0
2018-02-27T05:22:23.298Z,0
2018-02-27T05:23:23.356Z,0
2018-02-27T05:24:23.302Z,0
2018-02-27T05:25:23.602Z,0
2018-02-27T05:26:23.323Z,0
2018-02-27T05:27:23.323Z,0
2018-02-27T05:28:23.096Z,0
2018-02-27T05:29:23.633Z,0
2018-02-27T05:30:23.629Z,0
2018-02-27T05:31:23.070Z,0
2018-02-27T05:32:23.357Z,0
2018-02-27T05:33:23.419Z,0
2018-02-27T05:34:23.369Z,0
2018-02-27T05:35:23.384Z,0
2018-02-27T05:36:23.389Z,0
2018-02-27T05:37:23.676Z,0
2018-02-27T05:38:23.728Z,0
2018-02-27T05:39:23.118Z,0
2018-02-27T05:40:23.409Z,0
2018-02-27T05:41:23.417Z,0
2018-02-27T05:42:23.439Z,0
2018-02-27T05:43:23.145Z,4
2018-02-27T05:44:23.439Z,4
2018-02-27T05:45:23.725Z,4
2018-02-27T05:46:23.739Z,0
2018-02-27T05:47:23.454Z,4
2018-02-27T05:48:23.752Z,4
2018-02-27T05:49:23.784Z,4
2018-02-27T05:50:23.757Z,4
2018-02-27T05:51:23.194Z,8
2018-02-27T05:52:23.494Z,4
2018-02-27T05:53:23.779Z,8
2018-02-27T05:54:23.792Z,8
2018-02-27T05:55:23.788Z,12
2018-02-27T05:56:23.526Z,12
2018-02-27T05:57:23.238Z,16
2018-02-27T05:58:23.022Z,12
2018-02-27T05:59:23.537Z,16
2018-02-27T06:00:23.547Z,16
2018-02-27T06:01:23.891Z,20
2018-02-27T06:02:23.557Z,20
2018-02-27T06:03:23.845Z,24
2018-02-27T06:04:23.570Z,24
2018-02-27T06:05:23.864Z,28
2018-02-27T06:06:23.586Z,28
2018-02-27T06:07:23.876Z,36
2018-02-27T06:08:23.031Z,36
2018-02-27T06:09:23.314Z,40
2018-02-27T06:10:23.347Z,44
2018-02-27T06:11:23.336Z,48
2018-02-27T06:12:23.908Z,44
2018-02-27T06:13:23.685Z,48
2018-02-27T06:14:23.668Z,52
2018-02-27T06:15:23.924Z,56
2018-02-27T06:16:23.654Z,60
2018-02-27T06:17:23.387Z,64
2018-02-27T06:18:23.390Z,64
2018-02-27T06:19:23.956Z,72
2018-02-27T06:20:23.673Z,76
2018-02-27T06:21:23.682Z,80
2018-02-27T06:22:23.406Z,84
2018-02-27T06:23:23.695Z,88
2018-02-27T06:24:23.412Z,88
2018-02-27T06:25:23.993Z,96
2018-02-27T06:26:23.992Z,96
2018-02-27T06:27:23.721Z,100
2018-02-27T06:28:23.727Z,104
2018-02-27T06:29:23.734Z,112
2018-02-27T06:30:23.736Z,112
2018-02-27T06:31:23.843Z,116
2018-02-27T06:32:24.031Z,120
2018-02-27T06:33:24.039Z,120
2018-02-27T06:34:23.766Z,124
2018-02-27T06:35:24.059Z,128
2018-02-27T06:36:23.508Z,140
2018-02-27T06:37:24.149Z,136
2018-02-27T06:38:23.505Z,136
2018-02-27T06:39:23.564Z,140
2018-02-27T06:40:23.521Z,144
2018-02-27T06:41:23.821Z,144
2018-02-27T06:42:23.528Z,148
2018-02-27T06:43:23.535Z,152
2018-02-27T06:44:24.113Z,152
2018-02-27T06:45:23.272Z,160
2018-02-27T06:46:23.563Z,160
2018-02-27T06:47:23.848Z,164
2018-02-27T06:48:23.574Z,168
2018-02-27T06:49:24.194Z,172
2018-02-27T06:50:23.877Z,172
2018-02-27T06:51:24.147Z,176
2018-02-27T06:52:23.312Z,176
2018-02-27T06:53:23.321Z,180
2018-02-27T06:54:23.612Z,180
2018-02-27T06:55:24.205Z,184
2018-02-27T06:56:24.190Z,188
2018-02-27T06:57:23.913Z,188
2018-02-27T06:58:23.919Z,192
2018-02-27T06:59:23.640Z,188
2018-02-27T07:00:23.372Z,192
2018-02-27T07:01:24.227Z,196
2018-02-27T07:02:24.239Z,192
2018-02-27T07:03:24.234Z,196
2018-02-27T07:04:23.957Z,200
2018-02-27T07:05:23.963Z,200
2018-02-27T07:06:24.392Z,204
2018-02-27T07:07:23.981Z,204
2018-02-27T07:08:23.991Z,208
2018-02-27T07:09:23.773Z,208
2018-02-27T07:10:23.754Z,212
2018-02-27T07:11:24.013Z,212
2018-02-27T07:12:23.729Z,212
2018-02-27T07:13:24.299Z,216
2018-02-27T07:14:24.362Z,216
2018-02-27T07:15:23.460Z,216
2018-02-27T07:16:24.036Z,216
2018-02-27T07:17:24.042Z,220
2018-02-27T07:18:23.770Z,220
2018-02-27T07:19:23.778Z,224
2018-02-27T07:20:23.496Z,224
2018-02-27T07:21:24.350Z,228
2018-02-27T07:22:23.791Z,228
2018-02-27T07:23:24.371Z,228
2018-02-27T07:24:24.370Z,228
2018-02-27T07:25:23.816Z,236
2018-02-27T07:26:23.821Z,240
2018-02-27T07:27:24.396Z,236
2018-02-27T07:28:24.118Z,236
2018-02-27T07:29:24.403Z,236
2018-02-27T07:30:23.560Z,244
2018-02-27T07:31:24.419Z,244
2018-02-27T07:32:24.138Z,244
2018-02-27T07:33:24.431Z,244
2018-02-27T07:34:24.534Z,248
2018-02-27T07:35:24.276Z,248
2018-02-27T07:36:24.168Z,248
2018-02-27T07:37:23.894Z,248
2018-02-27T07:38:24.188Z,252
2018-02-27T07:39:24.191Z,252
2018-02-27T07:40:23.907Z,256
2018-02-27T07:41:24.210Z,256
2018-02-27T07:42:23.924Z,256
2018-02-27T07:43:23.930Z,260
2018-02-27T07:44:23.986Z,260
2018-02-27T07:45:23.946Z,264
2018-02-27T07:46:24.234Z,260
2018-02-27T07:47:24.301Z,264
2018-02-27T07:48:24.011Z,264
2018-02-27T07:49:23.972Z,268
2018-02-27T07:50:24.552Z,268
2018-02-27T07:51:23.987Z,268
2018-02-27T07:52:24.282Z,268
2018-02-27T07:53:24.280Z,272
2018-02-27T07:54:24.287Z,272
2018-02-27T07:55:24.579Z,272
2018-02-27T07:56:24.023Z,276
2018-02-27T07:57:24.597Z,276
2018-02-27T07:58:24.313Z,280
2018-02-27T07:59:24.322Z,280
2018-02-27T08:00:24.616Z,280
2018-02-27T08:01:24.058Z,280
2018-02-27T08:02:24.350Z,280
2018-02-27T08:03:24.637Z,284
2018-02-27T08:04:24.648Z,284
2018-02-27T08:05:24.363Z,288
2018-02-27T08:06:24.087Z,284
2018-02-27T08:07:24.382Z,288
2018-02-27T08:08:24.102Z,292
2018-02-27T08:09:24.725Z,292
2018-02-27T08:10:24.404Z,292
2018-02-27T08:11:24.410Z,296
2018-02-27T08:12:24.696Z,296
2018-02-27T08:13:24.432Z,296
2018-02-27T08:14:24.476Z,292
2018-02-27T08:15:24.158Z,296
2018-02-27T08:16:24.157Z,300
2018-02-27T08:17:24.744Z,296
2018-02-27T08:18:24.166Z,296
2018-02-27T08:19:24.740Z,296
2018-02-27T08:20:24.507Z,296
2018-02-27T08:21:24.477Z,304
2018-02-27T08:22:24.201Z,304
2018-02-27T08:23:24.495Z,304
2018-02-27T08:24:24.500Z,300
2018-02-27T08:25:24.215Z,304
2018-02-27T08:26:24.506Z,304
2018-02-27T08:27:24.233Z,300
2018-02-27T08:28:23.955Z,296
2018-02-27T08:29:24.528Z,300
2018-02-27T08:30:24.821Z,300
2018-02-27T08:31:24.829Z,304
2018-02-27T08:32:24.557Z,304
2018-02-27T08:33:24.845Z,308
2018-02-27T08:34:24.284Z,312
2018-02-27T08:35:24.585Z,308
2018-02-27T08:36:24.866Z,312
2018-02-27T08:37:24.586Z,320
2018-02-27T08:38:24.602Z,316
2018-02-27T08:39:24.608Z,316
2018-02-27T08:40:24.616Z,316
2018-02-27T08:41:24.898Z,312
2018-02-27T08:42:24.906Z,312
2018-02-27T08:43:24.919Z,320
2018-02-27T08:44:24.704Z,320
2018-02-27T08:45:24.934Z,320
2018-02-27T08:46:24.655Z,316
2018-02-27T08:47:24.659Z,316
2018-02-27T08:48:24.954Z,320
2018-02-27T08:49:24.956Z,324
2018-02-27T08:50:24.970Z,316
2018-02-27T08:51:24.727Z,324
2018-02-27T08:52:24.701Z,316
2018-02-27T08:53:24.982Z,316
2018-02-27T08:54:24.704Z,324
2018-02-27T08:55:25.005Z,332
2018-02-27T08:56:25.012Z,332
2018-02-27T08:57:25.010Z,328
2018-02-27T08:58:24.738Z,328
2018-02-27T08:59:25.039Z,328
2018-02-27T09:00:25.037Z,328
2018-02-27T09:01:24.476Z,328
2018-02-27T09:02:24.483Z,328
2018-02-27T09:03:25.062Z,328
2018-02-27T09:04:24.776Z,324
2018-02-27T09:05:25.131Z,328
2018-02-27T09:06:24.805Z,328
2018-02-27T09:07:24.810Z,328
2018-02-27T09:08:24.536Z,332
2018-02-27T09:09:25.103Z,336
2018-02-27T09:10:24.844Z,340
2018-02-27T09:11:24.840Z,340
2018-02-27T09:12:24.850Z,340
2018-02-27T09:13:24.848Z,340
2018-02-27T09:14:24.577Z,340
2018-02-27T09:15:24.916Z,340
2018-02-27T09:16:24.599Z,336
2018-02-27T09:17:24.604Z,340
2018-02-27T09:18:25.172Z,344
2018-02-27T09:19:25.257Z,340
2018-02-27T09:20:25.023Z,344
2018-02-27T09:21:24.631Z,340
2018-02-27T09:22:24.634Z,344
2018-02-27T09:23:25.209Z,344
2018-02-27T09:24:24.935Z,344
2018-02-27T09:25:25.230Z,348
2018-02-27T09:26:24.668Z,348
2018-02-27T09:27:24.674Z,348
2018-02-27T09:28:25.263Z,348
2018-02-27T09:29:24.691Z,348
2018-02-27T09:30:25.035Z,348
2018-02-27T09:31:25.363Z,352
2018-02-27T09:32:25.000Z,360
2018-02-27T09:33:25.018Z,360
2018-02-27T09:34:25.019Z,364
2018-02-27T09:35:25.020Z,368
2018-02-27T09:36:25.324Z,372
2018-02-27T09:37:25.035Z,376
2018-02-27T09:38:25.441Z,380
2018-02-27T09:39:25.334Z,384
2018-02-27T09:40:24.832Z,380
2018-02-27T09:41:25.364Z,384
2018-02-27T09:42:25.360Z,388
2018-02-27T09:43:25.085Z,388
2018-02-27T09:44:24.813Z,388
2018-02-27T09:45:25.304Z,396
2018-02-27T09:46:25.124Z,396
2018-02-27T09:47:24.837Z,400
2018-02-27T09:48:25.125Z,408
2018-02-27T09:49:24.854Z,412
2018-02-27T09:50:24.861Z,416
2018-02-27T09:51:25.200Z,420
2018-02-27T09:52:25.157Z,424
2018-02-27T09:53:25.166Z,432
2018-02-27T09:54:25.174Z,436
2018-02-27T09:55:25.469Z,444
2018-02-27T09:56:25.293Z,448
2018-02-27T09:57:25.487Z,448
2018-02-27T09:58:25.489Z,448
2018-02-27T09:59:24.930Z,456
2018-02-27T10:00:25.506Z,456
2018-02-27T10:01:25.016Z,464
2018-02-27T10:02:25.259Z,464
2018-02-27T10:03:25.536Z,468
2018-02-27T10:04:24.977Z,472
2018-02-27T10:05:25.311Z,472
2018-02-27T10:06:25.622Z,480
2018-02-27T10:07:25.289Z,480
2018-02-27T10:08:25.635Z,476
2018-02-27T10:09:25.298Z,488
2018-02-27T10:10:25.024Z,496
2018-02-27T10:11:25.326Z,532
2018-02-27T10:12:25.325Z,524
2018-02-27T10:13:25.325Z,520
2018-02-27T10:14:25.304Z,528
2018-02-27T10:15:25.355Z,532
2018-02-27T10:16:25.638Z,540
2018-02-27T10:17:25.370Z,540
2018-02-27T10:18:25.093Z,540
2018-02-27T10:19:25.387Z,540
2018-02-27T10:20:25.606Z,552
2018-02-27T10:21:25.683Z,548
2018-02-27T10:22:25.416Z,548
2018-02-27T10:23:25.426Z,548
2018-02-27T10:24:25.711Z,584
2018-02-27T10:25:25.724Z,548
2018-02-27T10:26:25.467Z,548
2018-02-27T10:27:25.466Z,544
2018-02-27T10:28:25.464Z,540
2018-02-27T10:29:25.468Z,548
2018-02-27T10:30:25.477Z,560
2018-02-27T10:31:25.566Z,564
2018-02-27T10:32:25.778Z,572
2018-02-27T10:33:25.502Z,584
2018-02-27T10:34:25.804Z,592
2018-02-27T10:35:25.520Z,592
2018-02-27T10:36:25.537Z,592
2018-02-27T10:37:25.545Z,604
2018-02-27T10:38:25.855Z,604
2018-02-27T10:39:25.565Z,600
2018-02-27T10:40:25.566Z,604
2018-02-27T10:41:25.316Z,608
2018-02-27T10:42:25.583Z,620
2018-02-27T10:43:25.877Z,616
2018-02-27T10:44:25.616Z,628
2018-02-27T10:45:26.072Z,632
2018-02-27T10:46:25.435Z,640
2018-02-27T10:47:25.628Z,648
2018-02-27T10:48:25.096Z,652
2018-02-27T10:49:25.653Z,644
2018-02-27T10:50:25.939Z,660
2018-02-27T10:51:25.098Z,652
2018-02-27T10:52:25.964Z,664
2018-02-27T10:53:25.965Z,676
2018-02-27T10:54:25.707Z,660
2018-02-27T10:55:25.987Z,668
2018-02-27T10:56:25.713Z,672
2018-02-27T10:57:25.725Z,680
2018-02-27T10:58:25.445Z,680
2018-02-27T10:59:25.777Z,680
2018-02-27T11:00:26.089Z,684
2018-02-27T11:01:25.754Z,684
2018-02-27T11:02:25.495Z,672
2018-02-27T11:03:26.068Z,684
2018-02-27T11:04:26.075Z,688
2018-02-27T11:05:25.799Z,692
2018-02-27T11:06:26.093Z,692
2018-02-27T11:07:25.871Z,692
2018-02-27T11:08:25.818Z,700
2018-02-27T11:09:25.549Z,708
2018-02-27T11:10:25.851Z,716
2018-02-27T11:11:25.851Z,636
2018-02-27T11:12:25.864Z,648
2018-02-27T11:13:25.876Z,628
2018-02-27T11:14:25.878Z,620
2018-02-27T11:15:25.604Z,600
2018-02-27T11:16:26.181Z,588
2018-02-27T11:17:26.204Z,628
2018-02-27T11:18:26.257Z,724
2018-02-27T11:19:26.217Z,724
2018-02-27T11:20:25.945Z,724
2018-02-27T11:21:25.950Z,728
2018-02-27T11:22:25.958Z,728
2018-02-27T11:23:25.967Z,732
2018-02-27T11:24:25.973Z,740
2018-02-27T11:25:25.711Z,748
2018-02-27T11:26:25.995Z,752
2018-02-27T11:27:26.286Z,752
2018-02-27T11:28:25.735Z,748
2018-02-27T11:29:25.737Z,748
2018-02-27T11:30:26.316Z,760
2018-02-27T11:31:26.324Z,760
2018-02-27T11:32:26.055Z,768
2018-02-27T11:33:26.058Z,768
2018-02-27T11:34:26.348Z,760
2018-02-27T11:35:26.078Z,764
2018-02-27T11:36:26.147Z,760
2018-02-27T11:37:25.867Z,760
2018-02-27T11:38:26.107Z,760
2018-02-27T11:39:26.400Z,764
2018-02-27T11:40:26.409Z,760
2018-02-27T11:41:26.504Z,760
2018-02-27T11:42:26.455Z,756
2018-02-27T11:43:26.439Z,756
2018-02-27T11:44:26.457Z,760
2018-02-27T11:45:26.509Z,764
2018-02-27T11:46:26.496Z,768
2018-02-27T11:47:25.965Z,772
2018-02-27T11:48:25.924Z,768
2018-02-27T11:49:26.514Z,768
2018-02-27T11:50:25.948Z,764
2018-02-27T11:51:25.955Z,764
2018-02-27T11:52:26.587Z,764
2018-02-27T11:53:26.257Z,764
2018-02-27T11:54:26.266Z,756
2018-02-27T11:55:26.282Z,752
2018-02-27T11:56:26.374Z,748
2018-02-27T11:57:26.347Z,744
2018-02-27T11:58:26.029Z,740
2018-02-27T11:59:26.601Z,732
2018-02-27T12:00:25.766Z,732
2018-02-27T12:01:26.626Z,732
2018-02-27T12:02:26.723Z,732
2018-02-27T12:03:26.644Z,728
2018-02-27T12:04:26.654Z,732
2018-02-27T12:05:26.665Z,724
2018-02-27T12:06:26.391Z,716
2018-02-27T12:07:26.128Z,708
2018-02-27T12:08:26.689Z,704
2018-02-27T12:09:26.139Z,704
2018-02-27T12:10:26.433Z,704
2018-02-27T12:11:26.463Z,696
2018-02-27T12:12:26.221Z,688
2018-02-27T12:13:26.462Z,684
2018-02-27T12:14:26.755Z,680
2018-02-27T12:15:26.760Z,684
2018-02-27T12:16:26.494Z,676
2018-02-27T12:17:26.222Z,668
2018-02-27T12:18:26.230Z,656
2018-02-27T12:19:26.805Z,640
2018-02-27T12:20:26.261Z,632
2018-02-27T12:21:26.558Z,632
2018-02-27T12:22:26.272Z,636
2018-02-27T12:23:26.000Z,628
2018-02-27T12:24:26.580Z,624
2018-02-27T12:25:26.589Z,624
2018-02-27T12:26:26.885Z,628
2018-02-27T12:27:26.652Z,624
2018-02-27T12:28:26.916Z,612
2018-02-27T12:29:26.689Z,600
2018-02-27T12:30:26.659Z,592
2018-02-27T12:31:26.648Z,588
2018-02-27T12:32:26.668Z,592
2018-02-27T12:33:26.675Z,588
2018-02-27T12:34:26.976Z,588
2018-02-27T12:35:26.973Z,592
2018-02-27T12:36:26.979Z,592
2018-02-27T12:37:27.006Z,592
2018-02-27T12:38:26.449Z,584
2018-02-27T12:39:27.032Z,576
2018-02-27T12:40:26.743Z,556
2018-02-27T12:41:27.031Z,556
2018-02-27T12:42:27.045Z,552
2018-02-27T12:43:27.054Z,552
2018-02-27T12:44:26.786Z,552
2018-02-27T12:45:26.797Z,552
2018-02-27T12:46:26.804Z,556
2018-02-27T12:47:27.103Z,548
2018-02-27T12:48:27.164Z,536
2018-02-27T12:49:27.125Z,528
2018-02-27T12:50:27.125Z,528
2018-02-27T12:51:26.573Z,528
2018-02-27T12:52:26.872Z,524
2018-02-27T12:53:26.595Z,516
2018-02-27T12:54:26.888Z,516
2018-02-27T12:55:27.190Z,516
2018-02-27T12:56:26.906Z,516
2018-02-27T12:57:26.354Z,516
2018-02-27T12:58:27.043Z,512
2018-02-27T12:59:26.946Z,508
2018-02-27T13:00:26.955Z,512
2018-02-27T13:01:27.247Z,516
2018-02-27T13:02:27.258Z,528
2018-02-27T13:03:26.702Z,524
2018-02-27T13:04:26.714Z,520
2018-02-27T13:05:27.287Z,516
2018-02-27T13:06:26.737Z,512
2018-02-27T13:07:27.035Z,504
2018-02-27T13:08:26.803Z,496
2018-02-27T13:09:27.055Z,496
2018-02-27T13:10:27.340Z,500
2018-02-27T13:11:27.074Z,500
2018-02-27T13:12:27.080Z,492
2018-02-27T13:13:27.422Z,488
2018-02-27T13:14:27.101Z,488
2018-02-27T13:15:27.392Z,496
2018-02-27T13:16:27.404Z,492
2018-02-27T13:17:26.844Z,496
2018-02-27T13:18:27.148Z,504
2018-02-27T13:19:27.492Z,508
2018-02-27T13:20:26.882Z,512
2018-02-27T13:21:27.460Z,504
2018-02-27T13:22:26.618Z,500
2018-02-27T13:23:27.534Z,500
2018-02-27T13:24:27.202Z,508
2018-02-27T13:25:27.665Z,508
2018-02-27T13:26:27.504Z,496
2018-02-27T13:27:27.234Z,500
2018-02-27T13:28:27.294Z,504
2018-02-27T13:29:27.254Z,504
2018-02-27T13:30:27.296Z,500
2018-02-27T13:31:26.994Z,508
2018-02-27T13:32:27.007Z,512
2018-02-27T13:33:27.300Z,508
2018-02-27T13:34:27.637Z,500
2018-02-27T13:35:27.032Z,496
2018-02-27T13:36:27.623Z,500
2018-02-27T13:37:27.624Z,500
2018-02-27T13:38:27.395Z,508
2018-02-27T13:39:27.375Z,504
2018-02-27T13:40:27.666Z,496
2018-02-27T13:41:27.390Z,492
2018-02-27T13:42:27.688Z,492
2018-02-27T13:43:27.498Z,496
2018-02-27T13:44:27.131Z,496
2018-02-27T13:45:27.148Z,500
2018-02-27T13:46:27.442Z,504
2018-02-27T13:47:27.165Z,508
2018-02-27T13:48:27.465Z,508
2018-02-27T13:49:32.316Z,504
2018-02-27T13:50:27.496Z,504
2018-02-27T13:51:27.499Z,508
2018-02-27T13:52:28.083Z,512
2018-02-27T13:53:27.564Z,516
2018-02-27T13:54:27.818Z,520
2018-02-27T13:55:27.534Z,516
2018-02-27T13:56:27.836Z,504
2018-02-27T13:57:27.551Z,500
2018-02-27T13:58:27.564Z,504
2018-02-27T13:59:27.576Z,512
2018-02-27T14:00:27.598Z,512
2018-02-27T14:01:27.887Z,508
2018-02-27T14:02:27.615Z,516
2018-02-27T14:03:27.666Z,532
2018-02-27T14:04:27.669Z,540
2018-02-27T14:05:27.922Z,544
2018-02-27T14:06:27.937Z,540
2018-02-27T14:07:27.942Z,536
2018-02-27T14:08:28.000Z,540
2018-02-27T14:09:27.684Z,548
2018-02-27T14:10:27.690Z,552
2018-02-27T14:11:27.415Z,556